Time;durP1;ratioP1;P1;durP2;ratioP2;P2;SDS_P1;SDS_P2;PMS_P1;PMS_P2;Temp;Humidity;BMP_temperature;BMP_pressure;BME280_temperature;BME280_humidity;BME280_pressure;Samples;Min_cycle;Max_cycle;Signal;HPM_P1;HPM_P2
2022/06/23 00:00:36;;;;;;;2.59;1.34;;;;;;;;;;363554;144;857152;-57
2022/06/23 00:01:41;;;;;;;2.18;1.42;;;;;;;;;;363445;145;857259;-57
2022/06/23 00:02:44;;;;;;;2.99;1.51;;;;;;;;;;366436;145;857194;-56
2022/06/23 00:03:45;;;;;;;3.81;1.51;;;;;;;;;;363415;145;859689;-58
2022/06/23 00:04:47;;;;;;;3.39;1.43;;;;;;;;;;364438;145;857602;-58
2022/06/23 00:05:51;;;;;;;3.16;1.77;;;;;;;;;;358251;145;859033;-58
2022/06/23 00:06:53;;;;;;;3.61;1.67;;;;;;;;;;360461;146;865106;-58
2022/06/23 00:07:55;;;;;;;3.06;1.55;;;;;;;;;;365019;145;860742;-58
2022/06/23 00:08:57;;;;;;;3.15;1.39;;;;;;;;;;365075;144;857169;-58
2022/06/23 00:09:59;;;;;;;2.23;1.56;;;;;;;;;;364309;145;857140;-58
2022/06/23 00:11:01;;;;;;;3.68;1.86;;;;;;;;;;363687;145;865632;-57
2022/06/23 00:12:17;;;;;;;2.44;1.57;;;;;;;;;;353095;151;857386;-57
2022/06/23 00:13:23;;;;;;;4.09;1.63;;;;;;;;;;362832;145;857344;-57
2022/06/23 00:14:25;;;;;;;3.19;1.41;;;;;;;;;;364458;145;859201;-58
2022/06/23 00:15:31;;;;;;;2.78;1.56;;;;;;;;;;364928;145;857751;-57
2022/06/23 00:16:33;;;;;;;4.73;1.66;;;;;;;;;;363512;144;858949;-60
2022/06/23 00:17:43;;;;;;;2.57;1.58;;;;;;;;;;364678;145;857368;-58
2022/06/23 00:18:42;;;;;;;4.97;1.72;;;;;;;;;;362517;145;859390;-57
2022/06/23 00:19:44;;;;;;;2.81;1.95;;;;;;;;;;365751;145;857288;-57
2022/06/23 00:20:51;;;;;;;2.91;1.76;;;;;;;;;;365923;144;862571;-57
2022/06/23 00:21:53;;;;;;;2.87;1.68;;;;;;;;;;364172;145;859049;-57
2022/06/23 00:22:55;;;;;;;2.98;2.11;;;;;;;;;;363446;145;857238;-57
2022/06/23 00:24:00;;;;;;;3.49;2.33;;;;;;;;;;364012;145;858070;-58
2022/06/23 00:25:02;;;;;;;3.18;1.77;;;;;;;;;;363293;145;857162;-57
2022/06/23 00:26:08;;;;;;;2.03;1.76;;;;;;;;;;363402;145;866355;-57
2022/06/23 00:27:11;;;;;;;2.78;1.87;;;;;;;;;;363866;145;857297;-57
2022/06/23 00:28:17;;;;;;;4.92;1.79;;;;;;;;;;363455;145;857640;-57
2022/06/23 00:29:21;;;;;;;3.48;1.72;;;;;;;;;;364862;145;858652;-57
2022/06/23 00:30:24;;;;;;;3.38;1.57;;;;;;;;;;364447;144;857152;-58
2022/06/23 00:31:37;;;;;;;4.25;1.95;;;;;;;;;;363324;144;858503;-58
2022/06/23 00:32:39;;;;;;;5.98;1.91;;;;;;;;;;363505;144;857377;-57
2022/06/23 00:33:40;;;;;;;4.37;2.01;;;;;;;;;;367757;145;857033;-57
2022/06/23 00:34:43;;;;;;;2.64;1.94;;;;;;;;;;364790;145;858706;-57
2022/06/23 00:35:46;;;;;;;3.44;1.73;;;;;;;;;;365027;145;857315;-57
2022/06/23 00:36:49;;;;;;;3.62;1.74;;;;;;;;;;365226;145;859235;-57
2022/06/23 00:37:51;;;;;;;5.62;2.01;;;;;;;;;;364184;145;857311;-58
2022/06/23 00:38:53;;;;;;;6.22;1.95;;;;;;;;;;362897;146;858014;-58
2022/06/23 00:39:59;;;;;;;4.94;1.62;;;;;;;;;;361838;146;865040;-58
2022/06/23 00:41:02;;;;;;;4.67;1.85;;;;;;;;;;363876;145;857836;-59
2022/06/23 00:42:25;;;;;;;4.16;2.02;;;;;;;;;;363409;145;857385;-59
2022/06/23 00:43:27;;;;;;;3.09;1.81;;;;;;;;;;363899;145;858911;-59
2022/06/23 00:44:33;;;;;;;3.57;2.15;;;;;;;;;;364074;144;858581;-57
2022/06/23 00:45:39;;;;;;;3.47;1.96;;;;;;;;;;363297;144;863036;-57
2022/06/23 00:46:44;;;;;;;2.81;1.80;;;;;;;;;;363984;145;858944;-57
2022/06/23 00:47:53;;;;;;;4.51;2.05;;;;;;;;;;363983;145;857306;-57
2022/06/23 00:48:57;;;;;;;4.98;2.36;;;;;;;;;;362880;145;858589;-57
2022/06/23 00:50:00;;;;;;;7.72;2.05;;;;;;;;;;360093;145;857650;-57
2022/06/23 00:51:16;;;;;;;4.87;1.99;;;;;;;;;;364437;144;856849;-57
2022/06/23 00:52:22;;;;;;;4.14;2.04;;;;;;;;;;363035;145;859435;-58
2022/06/23 00:53:29;;;;;;;2.70;1.99;;;;;;;;;;363670;145;857713;-58
2022/06/23 00:54:32;;;;;;;6.61;2.35;;;;;;;;;;363069;145;857131;-57
2022/06/23 00:55:36;;;;;;;4.23;2.01;;;;;;;;;;363417;145;857286;-58
2022/06/23 00:56:39;;;;;;;5.56;2.14;;;;;;;;;;363651;145;865005;-57
2022/06/23 00:57:46;;;;;;;3.89;2.19;;;;;;;;;;364758;145;857351;-58
2022/06/23 00:58:49;;;;;;;3.59;2.23;;;;;;;;;;363906;145;857338;-58
2022/06/23 00:59:53;;;;;;;5.15;2.37;;;;;;;;;;362799;145;857737;-58
2022/06/23 01:00:56;;;;;;;4.26;2.19;;;;;;;;;;364721;145;857649;-57
2022/06/23 01:02:08;;;;;;;5.81;2.41;;;;;;;;;;363575;145;857300;-58
2022/06/23 01:03:29;;;;;;;8.77;2.56;;;;;;;;;;363215;145;860401;-58
2022/06/23 01:04:35;;;;;;;6.42;3.07;;;;;;;;;;365088;145;857114;-57
2022/06/23 01:05:44;;;;;;;3.76;2.32;;;;;;;;;;364491;145;857211;-56
2022/06/23 01:06:48;;;;;;;4.51;2.52;;;;;;;;;;364620;145;858556;-57
2022/06/23 01:08:01;;;;;;;5.01;2.58;;;;;;;;;;357147;148;857536;-57
2022/06/23 01:09:04;;;;;;;6.82;2.64;;;;;;;;;;363388;145;864784;-57
2022/06/23 01:10:08;;;;;;;4.62;2.67;;;;;;;;;;361142;145;857227;-56
2022/06/23 01:11:11;;;;;;;6.71;2.76;;;;;;;;;;363415;145;858613;-57
2022/06/23 01:12:15;;;;;;;5.39;2.95;;;;;;;;;;363085;145;866437;-57
2022/06/23 01:13:36;;;;;;;7.49;3.00;;;;;;;;;;363811;144;864294;-57
2022/06/23 01:14:43;;;;;;;5.70;3.12;;;;;;;;;;366128;144;858939;-58
2022/06/23 01:15:46;;;;;;;5.72;2.93;;;;;;;;;;363968;144;859845;-57
2022/06/23 01:16:50;;;;;;;7.05;3.47;;;;;;;;;;365010;145;856659;-57
2022/06/23 01:18:02;;;;;;;6.03;3.23;;;;;;;;;;361508;145;865920;-56
2022/06/23 01:19:18;;;;;;;4.77;3.08;;;;;;;;;;361899;145;857829;-57
2022/06/23 01:20:35;;;;;;;6.17;2.98;;;;;;;;;;363264;145;857294;-56
2022/06/23 01:21:39;;;;;;;5.53;3.49;;;;;;;;;;364223;144;858119;-57
2022/06/23 01:22:52;;;;;;;5.21;3.19;;;;;;;;;;362897;145;857164;-57
2022/06/23 01:23:56;;;;;;;8.86;3.46;;;;;;;;;;363214;145;865116;-57
2022/06/23 01:25:16;;;;;;;5.26;2.98;;;;;;;;;;363688;145;857181;-58
2022/06/23 01:26:26;;;;;;;5.69;3.26;;;;;;;;;;363425;145;858927;-59
2022/06/23 01:27:46;;;;;;;8.07;3.78;;;;;;;;;;362939;145;857316;-57
2022/06/23 01:28:47;;;;;;;4.95;2.96;;;;;;;;;;362617;145;858778;-59
2022/06/23 01:29:59;;;;;;;6.91;3.16;;;;;;;;;;365290;145;858404;-59
2022/06/23 01:31:21;;;;;;;7.53;3.26;;;;;;;;;;359594;146;857229;-59
2022/06/23 01:32:24;;;;;;;5.53;3.04;;;;;;;;;;360282;145;858832;-56
2022/06/23 01:33:30;;;;;;;6.54;3.64;;;;;;;;;;363103;144;857279;-58
2022/06/23 01:34:51;;;;;;;5.01;3.25;;;;;;;;;;363184;144;857716;-58
2022/06/23 01:36:03;;;;;;;5.99;3.04;;;;;;;;;;363495;144;859156;-58
2022/06/23 01:37:10;;;;;;;8.54;3.42;;;;;;;;;;362718;144;865004;-59
2022/06/23 01:38:16;;;;;;;11.25;3.74;;;;;;;;;;360033;145;858536;-58
2022/06/23 01:39:24;;;;;;;8.02;3.37;;;;;;;;;;363618;144;859214;-59
2022/06/23 01:40:33;;;;;;;11.02;3.62;;;;;;;;;;363232;145;858288;-57
2022/06/23 01:41:36;;;;;;;7.63;3.55;;;;;;;;;;356710;147;857513;-58
2022/06/23 01:42:45;;;;;;;6.39;3.98;;;;;;;;;;362383;145;857302;-58
2022/06/23 01:43:52;;;;;;;8.47;3.97;;;;;;;;;;364197;145;864833;-57
2022/06/23 01:44:55;;;;;;;11.11;4.41;;;;;;;;;;360770;148;857335;-56
2022/06/23 01:46:02;;;;;;;7.41;4.01;;;;;;;;;;361040;147;857176;-57
2022/06/23 01:47:05;;;;;;;6.56;3.42;;;;;;;;;;363796;144;857168;-57
2022/06/23 01:48:14;;;;;;;8.46;4.05;;;;;;;;;;363939;145;858960;-58
2022/06/23 01:49:17;;;;;;;7.89;3.62;;;;;;;;;;364351;144;863621;-58
2022/06/23 01:50:27;;;;;;;10.95;4.05;;;;;;;;;;364991;145;859691;-58
2022/06/23 01:51:34;;;;;;;5.09;3.69;;;;;;;;;;363350;145;858739;-57
2022/06/23 01:52:35;;;;;;;8.91;4.47;;;;;;;;;;363204;144;857903;-57
2022/06/23 01:53:37;;;;;;;5.75;4.06;;;;;;;;;;363396;144;857128;-57
2022/06/23 01:54:38;;;;;;;6.41;3.89;;;;;;;;;;365482;145;857280;-56
2022/06/23 01:55:51;;;;;;;6.41;3.34;;;;;;;;;;363630;144;859703;-57
2022/06/23 01:56:55;;;;;;;5.39;3.64;;;;;;;;;;366722;145;865743;-57
2022/06/23 01:57:58;;;;;;;6.94;3.51;;;;;;;;;;364509;145;857233;-57
2022/06/23 01:59:04;;;;;;;7.79;3.92;;;;;;;;;;364166;145;858549;-57
2022/06/23 02:00:10;;;;;;;10.02;3.58;;;;;;;;;;364099;145;858195;-56
2022/06/23 02:01:13;;;;;;;8.18;3.39;;;;;;;;;;363945;145;857130;-56
2022/06/23 02:02:26;;;;;;;6.84;3.73;;;;;;;;;;364209;145;858371;-56
2022/06/23 02:03:30;;;;;;;10.16;3.97;;;;;;;;;;363312;144;864771;-56
2022/06/23 02:04:48;;;;;;;5.49;3.50;;;;;;;;;;364093;145;858736;-58
2022/06/23 02:05:50;;;;;;;21.36;3.57;;;;;;;;;;362917;145;859828;-58
2022/06/23 02:06:53;;;;;;;6.77;3.51;;;;;;;;;;363751;145;857313;-58
2022/06/23 02:07:56;;;;;;;5.99;3.53;;;;;;;;;;363920;145;857125;-58
2022/06/23 02:09:06;;;;;;;5.98;3.38;;;;;;;;;;365433;144;857154;-57
2022/06/23 02:10:22;;;;;;;5.71;3.26;;;;;;;;;;365711;145;859059;-57
2022/06/23 02:11:32;;;;;;;7.30;3.79;;;;;;;;;;367060;145;857147;-57
2022/06/23 02:12:35;;;;;;;6.67;3.48;;;;;;;;;;364433;145;857760;-57
2022/06/23 02:13:42;;;;;;;6.53;3.67;;;;;;;;;;363193;144;857783;-57
2022/06/23 02:14:45;;;;;;;5.99;3.41;;;;;;;;;;363176;145;857246;-59
2022/06/23 02:15:49;;;;;;;6.19;3.37;;;;;;;;;;365102;145;857340;-58
2022/06/23 02:17:01;;;;;;;6.95;3.36;;;;;;;;;;363868;145;857285;-58
2022/06/23 02:18:08;;;;;;;6.14;3.39;;;;;;;;;;364075;145;861874;-59
2022/06/23 02:19:28;;;;;;;6.43;4.02;;;;;;;;;;363793;145;859991;-58
2022/06/23 02:20:32;;;;;;;6.68;3.24;;;;;;;;;;363247;145;858745;-57
2022/06/23 02:21:39;;;;;;;6.66;3.36;;;;;;;;;;363609;145;857271;-57
2022/06/23 02:22:43;;;;;;;6.96;2.85;;;;;;;;;;363552;145;856696;-56
2022/06/23 02:24:01;;;;;;;6.89;3.02;;;;;;;;;;363846;145;859035;-57
2022/06/23 02:25:05;;;;;;;3.71;2.53;;;;;;;;;;364072;144;857146;-58
2022/06/23 02:26:13;;;;;;;6.89;2.98;;;;;;;;;;364984;145;857573;-57
2022/06/23 02:27:17;;;;;;;6.23;3.30;;;;;;;;;;363517;145;858811;-58
2022/06/23 02:28:27;;;;;;;6.08;3.32;;;;;;;;;;362976;145;857215;-58
2022/06/23 02:29:43;;;;;;;7.01;2.86;;;;;;;;;;362701;145;857819;-58
2022/06/23 02:30:46;;;;;;;5.56;3.24;;;;;;;;;;363651;145;861848;-58
2022/06/23 02:31:49;;;;;;;7.19;3.23;;;;;;;;;;363812;145;859529;-58
2022/06/23 02:33:02;;;;;;;6.81;3.48;;;;;;;;;;363915;145;857290;-58
2022/06/23 02:34:05;;;;;;;5.12;3.08;;;;;;;;;;365033;145;864659;-56
2022/06/23 02:35:27;;;;;;;6.32;3.35;;;;;;;;;;357920;145;857216;-57
2022/06/23 02:36:40;;;;;;;9.45;3.50;;;;;;;;;;364575;145;857732;-57
2022/06/23 02:37:55;;;;;;;4.90;3.17;;;;;;;;;;351503;148;857244;-57
2022/06/23 02:38:58;;;;;;;7.91;3.16;;;;;;;;;;364339;145;858932;-57
2022/06/23 02:39:59;;;;;;;4.61;2.89;;;;;;;;;;363710;145;857198;-58
2022/06/23 02:41:12;;;;;;;7.36;3.26;;;;;;;;;;363646;145;859049;-57
2022/06/23 02:42:16;;;;;;;5.07;3.07;;;;;;;;;;363066;145;857443;-56
2022/06/23 02:43:31;;;;;;;8.53;4.04;;;;;;;;;;363504;145;857776;-57
2022/06/23 02:44:50;;;;;;;5.49;2.73;;;;;;;;;;355466;150;857219;-57
2022/06/23 02:46:09;;;;;;;7.16;3.19;;;;;;;;;;360171;145;857286;-58
2022/06/23 02:47:18;;;;;;;4.28;2.91;;;;;;;;;;364226;145;857284;-58
2022/06/23 02:48:39;;;;;;;8.27;3.25;;;;;;;;;;364746;145;859123;-57
2022/06/23 02:49:40;;;;;;;;;;;;;;;;;;366462;145;859252;-57
2022/06/23 02:51:00;;;;;;;7.91;3.47;;;;;;;;;;363741;145;858117;-58
2022/06/23 02:52:02;;;;;;;;;;;;;;;;;;366154;145;856480;-58
2022/06/23 02:53:14;;;;;;;10.67;3.29;;;;;;;;;;363864;145;857441;-57
2022/06/23 02:54:21;;;;;;;7.34;3.71;;;;;;;;;;363473;145;859193;-57
2022/06/23 02:55:24;;;;;;;10.57;3.67;;;;;;;;;;364227;145;858579;-56
2022/06/23 02:56:28;;;;;;;5.51;3.25;;;;;;;;;;363513;145;858587;-57
2022/06/23 02:57:35;;;;;;;6.27;3.17;;;;;;;;;;363584;145;866420;-57
2022/06/23 02:58:44;;;;;;;5.04;3.09;;;;;;;;;;362583;145;858972;-57
2022/06/23 02:59:48;;;;;;;6.43;3.16;;;;;;;;;;364093;145;857298;-55
2022/06/23 03:00:51;;;;;;;7.64;2.67;;;;;;;;;;363011;145;857413;-57
2022/06/23 03:01:55;;;;;;;3.33;2.32;;;;;;;;;;361154;145;865778;-56
2022/06/23 03:03:05;;;;;;;3.84;2.39;;;;;;;;;;363718;144;866889;-56
2022/06/23 03:04:14;;;;;;;4.43;2.81;;;;;;;;;;362701;144;865795;-57
2022/06/23 03:05:30;;;;;;;8.66;2.63;;;;;;;;;;363019;145;857268;-57
2022/06/23 03:06:46;;;;;;;9.76;2.95;;;;;;;;;;362978;145;858219;-55
2022/06/23 03:07:52;;;;;;;4.72;2.88;;;;;;;;;;365929;144;857271;-56
2022/06/23 03:09:13;;;;;;;5.75;2.69;;;;;;;;;;364000;144;857295;-57
2022/06/23 03:10:18;;;;;;;5.85;2.76;;;;;;;;;;365204;145;857229;-57
2022/06/23 03:11:51;;;;;;;4.53;3.04;;;;;;;;;;364744;145;857900;-56
2022/06/23 03:13:07;;;;;;;5.97;2.68;;;;;;;;;;363359;144;859139;-56
2022/06/23 03:14:14;;;;;;;5.40;2.81;;;;;;;;;;365391;144;857189;-57
2022/06/23 03:15:24;;;;;;;3.74;2.22;;;;;;;;;;363173;144;857395;-57
2022/06/23 03:16:30;;;;;;;5.25;2.61;;;;;;;;;;362776;145;857192;-55
2022/06/23 03:17:43;;;;;;;5.28;2.80;;;;;;;;;;364558;145;858829;-58
2022/06/23 03:18:55;;;;;;;3.39;2.51;;;;;;;;;;363123;145;857342;-57
2022/06/23 03:20:05;;;;;;;5.38;2.69;;;;;;;;;;362849;144;857971;-56
2022/06/23 03:21:15;;;;;;;4.89;2.58;;;;;;;;;;364424;144;857369;-58
2022/06/23 03:22:18;;;;;;;3.54;2.01;;;;;;;;;;364311;145;857221;-58
2022/06/23 03:23:22;;;;;;;4.93;2.36;;;;;;;;;;363073;144;857818;-56
2022/06/23 03:24:25;;;;;;;4.43;2.41;;;;;;;;;;363374;145;857256;-56
2022/06/23 03:25:28;;;;;;;3.51;2.31;;;;;;;;;;363799;144;857393;-57
2022/06/23 03:26:35;;;;;;;4.66;2.59;;;;;;;;;;362855;145;858916;-56
2022/06/23 03:27:41;;;;;;;5.15;2.64;;;;;;;;;;363739;144;858106;-59
2022/06/23 03:28:45;;;;;;;3.66;2.41;;;;;;;;;;364429;144;859491;-56
2022/06/23 03:29:52;;;;;;;6.16;2.75;;;;;;;;;;364008;145;857302;-56
2022/06/23 03:30:56;;;;;;;5.63;2.61;;;;;;;;;;363524;144;859786;-56
2022/06/23 03:32:05;;;;;;;3.36;2.24;;;;;;;;;;363127;145;858962;-57
2022/06/23 03:33:08;;;;;;;5.08;2.82;;;;;;;;;;357918;145;857301;-57
2022/06/23 03:34:15;;;;;;;8.71;2.66;;;;;;;;;;363128;145;859713;-58
2022/06/23 03:35:21;;;;;;;5.08;2.54;;;;;;;;;;362716;144;858671;-58
2022/06/23 03:36:24;;;;;;;5.43;2.19;;;;;;;;;;362954;145;857224;-56
2022/06/23 03:37:37;;;;;;;3.67;2.36;;;;;;;;;;364321;144;857260;-57
2022/06/23 03:41:36;;;;;;;3.84;2.54;;;;;;;;;;363382;144;856348;-57
2022/06/23 03:42:39;;;;;;;3.44;2.57;;;;;;;;;;364691;145;856161;-59
2022/06/23 03:43:43;;;;;;;6.59;3.34;;;;;;;;;;363758;145;856416;-59
2022/06/23 03:44:46;;;;;;;3.69;2.63;;;;;;;;;;364166;145;856376;-58
2022/06/23 03:45:50;;;;;;;4.66;2.30;;;;;;;;;;363315;144;856525;-59
2022/06/23 03:46:56;;;;;;;5.65;2.52;;;;;;;;;;363704;144;856368;-57
2022/06/23 03:48:06;;;;;;;4.57;2.54;;;;;;;;;;364449;144;856192;-55
2022/06/23 03:49:15;;;;;;;3.07;2.40;;;;;;;;;;363496;144;856259;-56
2022/06/23 03:50:34;;;;;;;3.42;2.52;;;;;;;;;;363075;145;856299;-57
2022/06/23 03:51:37;;;;;;;6.23;2.69;;;;;;;;;;363015;145;856256;-57
2022/06/23 03:52:43;;;;;;;6.09;2.46;;;;;;;;;;365481;144;856471;-56
2022/06/23 03:53:55;;;;;;;3.99;2.44;;;;;;;;;;363288;144;856322;-57
2022/06/23 03:55:07;;;;;;;3.51;2.34;;;;;;;;;;365114;144;856190;-56
2022/06/23 03:56:11;;;;;;;3.56;2.51;;;;;;;;;;363099;145;856693;-58
2022/06/23 03:57:14;;;;;;;3.44;2.21;;;;;;;;;;363580;145;857193;-58
2022/06/23 03:58:21;;;;;;;4.06;2.53;;;;;;;;;;362447;145;858140;-58
2022/06/23 03:59:30;;;;;;;4.51;2.63;;;;;;;;;;362694;145;858364;-58
2022/06/23 04:00:36;;;;;;;3.63;2.32;;;;;;;;;;363536;145;856599;-58
2022/06/23 04:01:40;;;;;;;7.96;2.69;;;;;;;;;;364064;145;859245;-58
2022/06/23 04:02:42;;;;;;;4.34;2.26;;;;;;;;;;363424;145;858097;-56
2022/06/23 04:03:51;;;;;;;4.41;2.46;;;;;;;;;;363123;144;859529;-57
2022/06/23 04:04:57;;;;;;;5.27;2.58;;;;;;;;;;365591;145;857294;-56
2022/06/23 04:06:01;;;;;;;5.33;2.49;;;;;;;;;;364359;145;857119;-58
2022/06/23 04:07:03;;;;;;;2.09;1.76;;;;;;;;;;362774;145;859917;-57
2022/06/23 04:08:05;;;;;;;3.66;2.57;;;;;;;;;;359652;147;864539;-56
2022/06/23 04:09:08;;;;;;;8.38;3.11;;;;;;;;;;360335;145;858369;-59
2022/06/23 04:10:14;;;;;;;3.72;2.32;;;;;;;;;;364200;145;866467;-61
2022/06/23 04:12:37;;;;;;;7.07;2.41;;;;;;;;;;363601;145;858988;-60
2022/06/23 04:13:38;;;;;;;6.03;2.42;;;;;;;;;;363065;144;857233;-58
2022/06/23 04:14:48;;;;;;;9.85;3.42;;;;;;;;;;363249;144;857773;-56
2022/06/23 04:15:50;;;;;;;3.57;2.48;;;;;;;;;;362246;145;858904;-60
2022/06/23 04:17:00;;;;;;;4.66;2.42;;;;;;;;;;363412;144;860150;-60
2022/06/23 04:18:04;;;;;;;5.75;2.46;;;;;;;;;;363292;145;863555;-60
2022/06/23 04:19:17;;;;;;;6.15;2.53;;;;;;;;;;363125;145;857224;-60
2022/06/23 04:20:39;;;;;;;4.43;2.47;;;;;;;;;;363934;145;858139;-59
2022/06/23 04:21:43;;;;;;;4.88;2.24;;;;;;;;;;355451;149;857261;-59
2022/06/23 04:22:49;;;;;;;4.54;2.01;;;;;;;;;;354442;148;857855;-53
2022/06/23 04:23:56;;;;;;;6.02;2.27;;;;;;;;;;354294;149;859384;-57
2022/06/23 04:24:58;;;;;;;3.78;2.33;;;;;;;;;;353320;149;858149;-57
2022/06/23 04:26:19;;;;;;;6.89;2.59;;;;;;;;;;354593;149;857208;-56
2022/06/23 04:27:22;;;;;;;5.95;2.49;;;;;;;;;;354653;148;857404;-56
2022/06/23 04:28:26;;;;;;;3.56;2.52;;;;;;;;;;354102;149;857167;-56
2022/06/23 04:29:34;;;;;;;3.49;2.21;;;;;;;;;;354451;149;861087;-59
2022/06/23 04:30:37;;;;;;;5.17;2.48;;;;;;;;;;355516;149;864855;-62
2022/06/23 04:31:40;;;;;;;5.12;2.22;;;;;;;;;;354702;149;859062;-57
2022/06/23 04:32:42;;;;;;;6.46;2.22;;;;;;;;;;354752;149;857294;-58
2022/06/23 04:33:44;;;;;;;5.53;2.53;;;;;;;;;;354427;149;857372;-59
2022/06/23 04:34:53;;;;;;;3.41;2.33;;;;;;;;;;354737;148;865776;-55
2022/06/23 04:35:56;;;;;;;3.57;2.26;;;;;;;;;;354644;148;866154;-56
2022/06/23 04:36:57;;;;;;;4.63;2.20;;;;;;;;;;355856;147;857259;-54
2022/06/23 04:38:01;;;;;;;3.14;2.20;;;;;;;;;;354853;149;864761;-58
2022/06/23 04:39:22;;;;;;;3.52;2.49;;;;;;;;;;354189;149;865416;-57
2022/06/23 04:40:28;;;;;;;7.03;2.92;;;;;;;;;;349351;149;859567;-58
2022/06/23 04:41:32;;;;;;;10.21;2.42;;;;;;;;;;351428;151;857320;-56
2022/06/23 04:42:33;;;;;;;2.76;2.16;;;;;;;;;;351751;151;857190;-56
2022/06/23 04:43:36;;;;;;;3.86;2.28;;;;;;;;;;349785;150;857290;-57
2022/06/23 04:44:40;;;;;;;3.33;1.96;;;;;;;;;;350681;151;859075;-56
2022/06/23 04:45:43;;;;;;;3.52;2.40;;;;;;;;;;350276;150;856238;-57
2022/06/23 04:46:47;;;;;;;3.91;2.26;;;;;;;;;;350787;151;858424;-57
2022/06/23 04:47:49;;;;;;;2.51;2.09;;;;;;;;;;350813;152;866096;-58
2022/06/23 04:48:55;;;;;;;3.44;2.21;;;;;;;;;;351687;152;857279;-57
2022/06/23 04:50:03;;;;;;;6.53;2.27;;;;;;;;;;350033;151;857184;-61
2022/06/23 04:51:10;;;;;;;4.23;2.27;;;;;;;;;;351821;151;857275;-57
2022/06/23 04:52:13;;;;;;;3.97;2.39;;;;;;;;;;350395;150;857254;-57
2022/06/23 04:53:17;;;;;;;4.17;2.58;;;;;;;;;;352215;151;857196;-58
2022/06/23 04:54:20;;;;;;;3.84;2.31;;;;;;;;;;350947;150;864755;-57
2022/06/23 04:55:23;;;;;;;3.30;2.31;;;;;;;;;;350198;151;864712;-58
2022/06/23 04:56:32;;;;;;;2.69;2.18;;;;;;;;;;353356;149;857884;-58
2022/06/23 04:57:51;;;;;;;3.12;1.99;;;;;;;;;;349763;151;858852;-56
2022/06/23 04:58:57;;;;;;;6.62;2.73;;;;;;;;;;351440;152;859017;-58
2022/06/23 05:00:00;;;;;;;3.03;1.95;;;;;;;;;;350301;149;857490;-58
2022/06/23 05:01:01;;;;;;;4.97;2.75;;;;;;;;;;351839;151;857174;-59
2022/06/23 05:02:05;;;;;;;5.10;2.23;;;;;;;;;;350199;151;858032;-57
2022/06/23 05:03:08;;;;;;;6.92;2.54;;;;;;;;;;349667;151;857297;-58
2022/06/23 05:04:20;;;;;;;4.38;2.14;;;;;;;;;;348554;151;857289;-58
2022/06/23 05:05:23;;;;;;;3.29;2.42;;;;;;;;;;349712;150;857232;-56
2022/06/23 05:06:41;;;;;;;5.24;2.63;;;;;;;;;;351964;149;858526;-57
2022/06/23 05:07:44;;;;;;;3.81;2.04;;;;;;;;;;351644;150;865620;-57
2022/06/23 05:08:47;;;;;;;5.81;2.57;;;;;;;;;;349131;151;857281;-57
2022/06/23 05:09:49;;;;;;;4.60;2.12;;;;;;;;;;350010;151;867620;-57
2022/06/23 05:10:52;;;;;;;4.53;2.40;;;;;;;;;;350673;150;858447;-57
2022/06/23 05:11:55;;;;;;;3.21;2.44;;;;;;;;;;351060;151;864967;-57
2022/06/23 05:12:58;;;;;;;4.41;2.33;;;;;;;;;;352641;150;856235;-58
2022/06/23 05:14:05;;;;;;;3.19;2.31;;;;;;;;;;352554;151;856323;-59
2022/06/23 05:15:18;;;;;;;6.98;2.24;;;;;;;;;;350863;151;856957;-59
2022/06/23 05:16:28;;;;;;;4.56;2.26;;;;;;;;;;349670;151;856303;-58
2022/06/23 05:17:31;;;;;;;3.01;2.07;;;;;;;;;;352644;151;856335;-59
2022/06/23 05:18:34;;;;;;;6.04;2.47;;;;;;;;;;348951;151;856363;-59
2022/06/23 05:21:46;;;;;;;6.05;2.06;;;;;;;17.65;63.79;98932.10;372352;142;878032;-57
2022/06/23 05:22:47;;;;;;;3.49;2.30;;;;;;;17.59;63.57;98932.43;362642;144;856530;-57
2022/06/23 05:24:18;;;;;;;3.31;2.23;;;;;;;17.25;64.65;98936.83;361985;144;856394;-58
2022/06/23 05:25:35;;;;;;;3.82;2.11;;;;;;;17.05;65.91;98935.22;356414;148;864153;-58
2022/06/23 05:26:43;;;;;;;4.09;1.98;;;;;;;17.32;64.95;98934.72;359168;146;856950;-58
2022/06/23 05:27:46;;;;;;;5.50;2.13;;;;;;;17.49;64.56;98939.91;362792;144;856551;-58
2022/06/23 05:28:50;;;;;;;5.40;2.23;;;;;;;17.60;64.58;98938.53;355510;147;857357;-57
2022/06/23 05:29:59;;;;;;;8.14;2.59;;;;;;;17.63;63.93;98930.51;355390;147;859174;-57
2022/06/23 05:31:02;;;;;;;4.29;2.19;;;;;;;17.73;64.11;98930.84;362804;145;856350;-58
2022/06/23 05:32:16;;;;;;;3.09;2.25;;;;;;;17.86;63.79;98933.66;364042;144;856312;-58
2022/06/23 05:33:25;;;;;;;4.26;2.14;;;;;;;17.94;63.12;98941.94;353824;147;856362;-58
2022/06/23 05:34:29;;;;;;;4.80;2.21;;;;;;;18.05;62.85;98936.98;362601;147;856933;-57
2022/06/23 05:35:42;;;;;;;3.42;1.86;;;;;;;18.08;62.47;98935.98;364628;145;856791;-57
2022/06/23 05:37:05;;;;;;;4.71;2.24;;;;;;;18.10;62.91;98934.13;366341;144;856738;-57
2022/06/23 05:38:11;;;;;;;4.29;2.07;;;;;;;18.17;61.97;98937.23;360718;145;856860;-57
2022/06/23 05:39:20;;;;;;;3.98;2.43;;;;;;;18.25;62.32;98940.27;361751;145;856282;-57
2022/06/23 05:40:26;;;;;;;3.81;2.18;;;;;;;18.15;62.77;98942.57;360284;147;856205;-58
2022/06/23 05:41:34;;;;;;;5.41;2.07;;;;;;;18.20;62.33;98937.06;360488;147;856298;-57
2022/06/23 05:42:37;;;;;;;3.17;2.18;;;;;;;18.20;62.15;98937.92;362469;144;859916;-59
2022/06/23 05:43:40;;;;;;;4.29;2.51;;;;;;;18.18;62.23;98950.26;355079;147;858242;-57
2022/06/23 05:44:45;;;;;;;3.93;2.29;;;;;;;18.23;62.55;98948.23;357331;147;857231;-58
2022/06/23 05:45:54;;;;;;;3.07;2.41;;;;;;;18.23;62.23;98945.61;364217;145;857404;-58
2022/06/23 05:46:59;;;;;;;5.27;2.19;;;;;;;18.25;62.32;98946.37;364094;144;857223;-58
2022/06/23 05:48:01;;;;;;;4.54;2.29;;;;;;;18.23;61.93;98942.13;362692;144;859884;-57
2022/06/23 05:49:06;;;;;;;3.89;2.73;;;;;;;18.05;62.49;98951.88;351858;150;857318;-57
2022/06/23 05:50:13;;;;;;;2.52;2.12;;;;;;;18.03;62.88;98951.11;351557;149;858161;-58
2022/06/23 05:51:21;;;;;;;2.94;2.16;;;;;;;18.05;62.38;98950.08;361689;144;857244;-59
2022/06/23 05:52:39;;;;;;;3.03;1.98;;;;;;;18.01;62.51;98951.18;360217;145;857279;-58
2022/06/23 05:53:59;;;;;;;5.88;2.16;;;;;;;18.02;62.82;98952.00;348811;150;859336;-58
2022/06/23 05:55:14;;;;;;;3.68;2.04;;;;;;;17.84;63.77;98954.67;362568;144;859766;-57
2022/06/23 05:56:27;;;;;;;3.39;2.16;;;;;;;18.00;63.44;98957.34;362736;146;857369;-56
2022/06/23 05:57:35;;;;;;;6.22;2.71;;;;;;;18.12;62.59;98950.60;362989;147;859727;-58
2022/06/23 05:58:52;;;;;;;6.95;2.28;;;;;;;18.21;62.36;98960.56;362197;147;859520;-56
2022/06/23 05:59:57;;;;;;;4.74;2.39;;;;;;;18.29;62.49;98956.67;362161;146;858263;-57
2022/06/23 06:01:12;;;;;;;8.32;2.36;;;;;;;18.34;62.87;98952.02;360886;144;857194;-57
2022/06/23 06:02:21;;;;;;;6.45;2.16;;;;;;;18.54;61.91;98954.36;348980;150;857704;-57
2022/06/23 06:03:29;;;;;;;5.23;2.43;;;;;;;18.79;61.64;98954.73;361844;147;858580;-59
2022/06/23 06:04:34;;;;;;;4.56;2.43;;;;;;;18.96;60.93;98951.97;363599;144;857667;-58
2022/06/23 06:05:37;;;;;;;5.20;2.25;;;;;;;19.15;60.44;98957.95;360843;146;857331;-57
2022/06/23 06:06:39;;;;;;;3.87;2.08;;;;;;;19.16;60.21;98963.09;363214;146;856348;-57
2022/06/23 06:07:41;;;;;;;5.15;2.37;;;;;;;19.00;59.80;98952.65;360656;145;864281;-59
2022/06/23 06:10:17;;;;;;;3.03;1.98;;;;;;;18.90;61.49;98949.70;361932;144;857170;-58
2022/06/23 06:11:19;;;;;;;4.30;2.02;;;;;;;19.05;59.35;98963.71;363106;147;859990;-57
2022/06/23 06:12:23;;;;;;;5.09;2.05;;;;;;;19.07;60.23;98946.10;362274;144;858937;-59
2022/06/23 06:13:30;;;;;;;4.16;2.61;;;;;;;19.25;59.30;98961.71;362192;144;857400;-58
2022/06/23 06:14:36;;;;;;;6.84;2.54;;;;;;;19.46;59.58;98963.98;361839;144;857189;-58
2022/06/23 06:15:38;;;;;;;8.72;1.86;;;;;;;;;;353853;150;857290;-58
2022/06/23 06:16:40;;;;;;;6.85;3.17;;;;;;;;;;362987;144;866564;-56
2022/06/23 06:17:42;;;;;;;5.65;2.02;;;;;;;;;;361581;147;857591;-57
2022/06/23 06:18:43;;;;;;;3.04;2.20;;;;;;;;;;361206;144;865280;-59
2022/06/23 06:19:45;;;;;;;6.99;2.13;;;;;;;;;;361807;147;857331;-57
2022/06/23 06:20:47;;;;;;;4.96;2.52;;;;;;;;;;362243;144;857525;-58
2022/06/23 06:21:48;;;;;;;4.01;2.04;;;;;;;;;;359307;147;865210;-58
2022/06/23 06:22:58;;;;;;;2.91;2.02;;;;;;;;;;357929;148;866659;-57
2022/06/23 06:24:01;;;;;;;3.18;2.12;;;;;;;;;;358393;148;857263;-57
2022/06/23 06:25:04;;;;;;;4.23;2.03;;;;;;;;;;358173;148;857193;-58
2022/06/23 06:26:06;;;;;;;3.89;2.45;;;;;;;;;;352028;151;856259;-58
2022/06/23 06:27:08;;;;;;;4.47;2.53;;;;;;;;;;353841;149;864784;-58
2022/06/23 06:28:21;;;;;;;4.48;1.97;;;;;;;;;;358425;148;857719;-57
2022/06/23 06:29:33;;;;;;;8.82;3.08;;;;;;;;;;359575;148;864692;-58